sensor_id;sensor_type;location;lat;lon;timestamp;P1;durP1;ratioP1;P2;durP2;ratioP2
27925;SDS011;15267;47.838;12.128;2022-07-10T00:00:11;3.92;;;1.70;;
27925;SDS011;15267;47.838;12.128;2022-07-10T00:02:38;4.07;;;1.70;;
27925;SDS011;15267;47.838;12.128;2022-07-10T00:05:04;4.57;;;1.70;;
27925;SDS011;15267;47.838;12.128;2022-07-10T00:07:30;3.17;;;1.70;;
27925;SDS011;15267;47.838;12.128;2022-07-10T00:09:56;3.90;;;1.63;;
27925;SDS011;15267;47.838;12.128;2022-07-10T00:12:22;3.72;;;2.17;;
27925;SDS011;15267;47.838;12.128;2022-07-10T00:14:48;4.10;;;2.15;;
27925;SDS011;15267;47.838;12.128;2022-07-10T00:17:14;5.18;;;2.28;;
27925;SDS011;15267;47.838;12.128;2022-07-10T00:19:40;5.30;;;1.90;;
27925;SDS011;15267;47.838;12.128;2022-07-10T00:22:06;5.20;;;2.00;;
27925;SDS011;15267;47.838;12.128;2022-07-10T00:24:32;3.42;;;1.73;;
27925;SDS011;15267;47.838;12.128;2022-07-10T00:26:58;3.13;;;2.00;;
27925;SDS011;15267;47.838;12.128;2022-07-10T00:29:24;3.67;;;1.95;;
27925;SDS011;15267;47.838;12.128;2022-07-10T00:31:50;3.85;;;1.80;;
27925;SDS011;15267;47.838;12.128;2022-07-10T00:34:16;3.38;;;1.98;;
27925;SDS011;15267;47.838;12.128;2022-07-10T00:36:42;3.70;;;2.20;;
27925;SDS011;15267;47.838;12.128;2022-07-10T00:39:08;4.07;;;1.80;;
27925;SDS011;15267;47.838;12.128;2022-07-10T00:41:34;3.53;;;1.70;;
27925;SDS011;15267;47.838;12.128;2022-07-10T00:44:01;4.50;;;1.73;;
27925;SDS011;15267;47.838;12.128;2022-07-10T00:46:27;3.78;;;2.03;;
27925;SDS011;15267;47.838;12.128;2022-07-10T00:48:54;3.90;;;1.83;;
27925;SDS011;15267;47.838;12.128;2022-07-10T00:51:21;6.13;;;1.85;;
27925;SDS011;15267;47.838;12.128;2022-07-10T00:53:48;3.83;;;1.40;;
27925;SDS011;15267;47.838;12.128;2022-07-10T00:56:18;3.63;;;1.50;;
27925;SDS011;15267;47.838;12.128;2022-07-10T00:58:45;2.33;;;1.70;;
27925;SDS011;15267;47.838;12.128;2022-07-10T01:01:11;4.00;;;1.77;;
27925;SDS011;15267;47.838;12.128;2022-07-10T01:03:37;10.55;;;1.80;;
27925;SDS011;15267;47.838;12.128;2022-07-10T01:06:03;5.60;;;2.10;;
27925;SDS011;15267;47.838;12.128;2022-07-10T01:08:29;3.17;;;1.58;;
27925;SDS011;15267;47.838;12.128;2022-07-10T01:10:56;3.45;;;1.63;;
27925;SDS011;15267;47.838;12.128;2022-07-10T01:13:22;3.75;;;1.85;;
27925;SDS011;15267;47.838;12.128;2022-07-10T01:15:48;4.93;;;1.80;;
27925;SDS011;15267;47.838;12.128;2022-07-10T01:18:14;3.42;;;2.05;;
27925;SDS011;15267;47.838;12.128;2022-07-10T01:20:40;2.38;;;1.88;;
27925;SDS011;15267;47.838;12.128;2022-07-10T01:23:06;4.72;;;1.98;;
27925;SDS011;15267;47.838;12.128;2022-07-10T01:25:32;4.72;;;2.17;;
27925;SDS011;15267;47.838;12.128;2022-07-10T01:27:58;3.22;;;1.95;;
27925;SDS011;15267;47.838;12.128;2022-07-10T01:30:25;6.45;;;2.10;;
27925;SDS011;15267;47.838;12.128;2022-07-10T01:32:51;5.53;;;2.17;;
27925;SDS011;15267;47.838;12.128;2022-07-10T01:35:17;7.18;;;3.90;;
27925;SDS011;15267;47.838;12.128;2022-07-10T01:37:44;6.93;;;3.90;;
27925;SDS011;15267;47.838;12.128;2022-07-10T01:40:10;10.93;;;5.03;;
27925;SDS011;15267;47.838;12.128;2022-07-10T01:42:36;8.35;;;4.80;;
27925;SDS011;15267;47.838;12.128;2022-07-10T01:45:03;13.02;;;6.28;;
27925;SDS011;15267;47.838;12.128;2022-07-10T01:47:29;16.83;;;6.45;;
27925;SDS011;15267;47.838;12.128;2022-07-10T01:49:55;11.63;;;6.10;;
27925;SDS011;15267;47.838;12.128;2022-07-10T01:52:21;13.07;;;5.50;;
27925;SDS011;15267;47.838;12.128;2022-07-10T01:54:47;9.80;;;4.80;;
27925;SDS011;15267;47.838;12.128;2022-07-10T01:57:14;8.30;;;4.35;;
27925;SDS011;15267;47.838;12.128;2022-07-10T01:59:40;8.60;;;4.72;;
27925;SDS011;15267;47.838;12.128;2022-07-10T02:02:06;6.40;;;4.07;;
27925;SDS011;15267;47.838;12.128;2022-07-10T02:04:32;9.73;;;4.15;;
27925;SDS011;15267;47.838;12.128;2022-07-10T02:07:08;7.75;;;4.28;;
27925;SDS011;15267;47.838;12.128;2022-07-10T02:09:34;10.20;;;4.20;;
27925;SDS011;15267;47.838;12.128;2022-07-10T02:12:01;6.40;;;4.63;;
27925;SDS011;15267;47.838;12.128;2022-07-10T02:14:27;8.07;;;4.50;;
27925;SDS011;15267;47.838;12.128;2022-07-10T02:16:53;5.70;;;4.05;;
27925;SDS011;15267;47.838;12.128;2022-07-10T02:19:19;9.07;;;4.50;;
27925;SDS011;15267;47.838;12.128;2022-07-10T02:21:45;8.93;;;5.03;;
27925;SDS011;15267;47.838;12.128;2022-07-10T02:24:11;9.93;;;5.65;;
27925;SDS011;15267;47.838;12.128;2022-07-10T02:26:37;9.77;;;5.80;;
27925;SDS011;15267;47.838;12.128;2022-07-10T02:29:03;10.88;;;6.07;;
27925;SDS011;15267;47.838;12.128;2022-07-10T02:31:29;9.98;;;6.15;;
27925;SDS011;15267;47.838;12.128;2022-07-10T02:33:55;7.95;;;5.03;;
27925;SDS011;15267;47.838;12.128;2022-07-10T02:36:21;10.27;;;5.80;;
27925;SDS011;15267;47.838;12.128;2022-07-10T02:38:47;8.82;;;4.38;;
27925;SDS011;15267;47.838;12.128;2022-07-10T02:41:13;8.63;;;5.05;;
27925;SDS011;15267;47.838;12.128;2022-07-10T02:43:39;8.57;;;4.82;;
27925;SDS011;15267;47.838;12.128;2022-07-10T02:46:05;13.45;;;6.55;;
27925;SDS011;15267;47.838;12.128;2022-07-10T02:48:31;14.20;;;7.70;;
27925;SDS011;15267;47.838;12.128;2022-07-10T02:50:56;8.65;;;5.75;;
27925;SDS011;15267;47.838;12.128;2022-07-10T02:53:22;12.43;;;6.22;;
27925;SDS011;15267;47.838;12.128;2022-07-10T02:55:48;8.75;;;5.93;;
27925;SDS011;15267;47.838;12.128;2022-07-10T02:58:14;12.75;;;7.70;;
27925;SDS011;15267;47.838;12.128;2022-07-10T03:00:40;10.85;;;7.50;;
27925;SDS011;15267;47.838;12.128;2022-07-10T03:03:07;10.98;;;7.47;;
27925;SDS011;15267;47.838;12.128;2022-07-10T03:05:33;12.25;;;7.72;;
27925;SDS011;15267;47.838;12.128;2022-07-10T03:07:59;10.73;;;6.82;;
27925;SDS011;15267;47.838;12.128;2022-07-10T03:10:25;8.30;;;4.95;;
27925;SDS011;15267;47.838;12.128;2022-07-10T03:12:51;10.13;;;7.15;;
27925;SDS011;15267;47.838;12.128;2022-07-10T03:15:17;9.05;;;6.72;;
27925;SDS011;15267;47.838;12.128;2022-07-10T03:17:43;11.93;;;7.10;;
27925;SDS011;15267;47.838;12.128;2022-07-10T03:20:09;11.05;;;7.20;;
27925;SDS011;15267;47.838;12.128;2022-07-10T03:22:36;7.22;;;6.25;;
27925;SDS011;15267;47.838;12.128;2022-07-10T03:25:02;6.95;;;6.22;;
27925;SDS011;15267;47.838;12.128;2022-07-10T03:27:29;7.43;;;4.28;;
27925;SDS011;15267;47.838;12.128;2022-07-10T03:29:54;6.05;;;4.93;;
27925;SDS011;15267;47.838;12.128;2022-07-10T03:32:20;10.68;;;5.38;;
27925;SDS011;15267;47.838;12.128;2022-07-10T03:34:47;6.82;;;4.35;;
27925;SDS011;15267;47.838;12.128;2022-07-10T03:37:13;7.28;;;4.32;;
27925;SDS011;15267;47.838;12.128;2022-07-10T03:39:39;6.43;;;5.82;;
27925;SDS011;15267;47.838;12.128;2022-07-10T03:42:05;5.82;;;4.68;;
27925;SDS011;15267;47.838;12.128;2022-07-10T03:44:31;5.07;;;4.47;;
27925;SDS011;15267;47.838;12.128;2022-07-10T03:46:57;6.07;;;5.05;;
27925;SDS011;15267;47.838;12.128;2022-07-10T03:49:23;8.15;;;5.68;;
27925;SDS011;15267;47.838;12.128;2022-07-10T03:51:49;7.72;;;4.57;;
27925;SDS011;15267;47.838;12.128;2022-07-10T03:54:15;6.50;;;5.85;;
27925;SDS011;15267;47.838;12.128;2022-07-10T03:56:41;7.20;;;6.30;;
27925;SDS011;15267;47.838;12.128;2022-07-10T03:59:26;7.88;;;6.32;;
27925;SDS011;15267;47.838;12.128;2022-07-10T04:01:52;3.95;;;3.60;;
27925;SDS011;15267;47.838;12.128;2022-07-10T04:04:18;6.28;;;5.68;;
27925;SDS011;15267;47.838;12.128;2022-07-10T04:06:44;9.20;;;6.38;;
27925;SDS011;15267;47.838;12.128;2022-07-10T04:09:10;5.10;;;3.60;;
27925;SDS011;15267;47.838;12.128;2022-07-10T04:11:36;4.30;;;3.50;;
27925;SDS011;15267;47.838;12.128;2022-07-10T04:14:02;4.07;;;3.40;;
27925;SDS011;15267;47.838;12.128;2022-07-10T04:16:28;7.20;;;6.50;;
27925;SDS011;15267;47.838;12.128;2022-07-10T04:18:54;7.03;;;6.18;;
27925;SDS011;15267;47.838;12.128;2022-07-10T04:21:20;9.27;;;6.65;;
27925;SDS011;15267;47.838;12.128;2022-07-10T04:23:46;7.68;;;6.93;;
27925;SDS011;15267;47.838;12.128;2022-07-10T04:26:12;7.50;;;6.68;;
27925;SDS011;15267;47.838;12.128;2022-07-10T04:28:38;7.32;;;6.38;;
27925;SDS011;15267;47.838;12.128;2022-07-10T04:31:04;10.40;;;7.43;;
27925;SDS011;15267;47.838;12.128;2022-07-10T04:33:30;6.10;;;5.10;;
27925;SDS011;15267;47.838;12.128;2022-07-10T04:35:56;4.40;;;3.55;;
27925;SDS011;15267;47.838;12.128;2022-07-10T04:38:22;4.32;;;3.45;;
27925;SDS011;15267;47.838;12.128;2022-07-10T04:40:48;4.32;;;3.50;;
27925;SDS011;15267;47.838;12.128;2022-07-10T04:43:14;3.70;;;3.30;;
27925;SDS011;15267;47.838;12.128;2022-07-10T04:45:40;6.00;;;4.13;;
27925;SDS011;15267;47.838;12.128;2022-07-10T04:48:06;4.60;;;3.75;;
27925;SDS011;15267;47.838;12.128;2022-07-10T04:50:32;4.85;;;4.35;;
27925;SDS011;15267;47.838;12.128;2022-07-10T04:52:58;3.70;;;3.38;;
27925;SDS011;15267;47.838;12.128;2022-07-10T04:55:24;7.30;;;3.75;;
27925;SDS011;15267;47.838;12.128;2022-07-10T04:57:50;6.68;;;5.20;;
27925;SDS011;15267;47.838;12.128;2022-07-10T05:00:16;7.82;;;6.65;;
27925;SDS011;15267;47.838;12.128;2022-07-10T05:02:42;7.32;;;6.13;;
27925;SDS011;15267;47.838;12.128;2022-07-10T05:05:08;6.05;;;3.90;;
27925;SDS011;15267;47.838;12.128;2022-07-10T05:07:34;9.05;;;6.65;;
27925;SDS011;15267;47.838;12.128;2022-07-10T05:10:00;7.00;;;4.07;;
27925;SDS011;15267;47.838;12.128;2022-07-10T05:12:26;5.05;;;3.38;;
27925;SDS011;15267;47.838;12.128;2022-07-10T05:14:52;5.40;;;3.85;;
27925;SDS011;15267;47.838;12.128;2022-07-10T05:17:18;5.90;;;3.55;;
27925;SDS011;15267;47.838;12.128;2022-07-10T05:19:44;5.50;;;4.43;;
27925;SDS011;15267;47.838;12.128;2022-07-10T05:22:10;5.15;;;3.50;;
27925;SDS011;15267;47.838;12.128;2022-07-10T05:24:36;4.43;;;3.83;;
27925;SDS011;15267;47.838;12.128;2022-07-10T05:27:02;5.97;;;4.63;;
27925;SDS011;15267;47.838;12.128;2022-07-10T05:29:28;6.95;;;5.05;;
27925;SDS011;15267;47.838;12.128;2022-07-10T05:31:54;9.35;;;4.78;;
27925;SDS011;15267;47.838;12.128;2022-07-10T05:34:20;4.80;;;4.38;;
27925;SDS011;15267;47.838;12.128;2022-07-10T05:36:46;5.32;;;4.82;;
27925;SDS011;15267;47.838;12.128;2022-07-10T05:39:12;5.30;;;4.75;;
27925;SDS011;15267;47.838;12.128;2022-07-10T05:41:38;4.90;;;4.50;;
27925;SDS011;15267;47.838;12.128;2022-07-10T05:44:04;4.65;;;4.25;;
27925;SDS011;15267;47.838;12.128;2022-07-10T05:46:30;5.25;;;4.35;;
27925;SDS011;15267;47.838;12.128;2022-07-10T05:48:56;6.43;;;4.43;;
27925;SDS011;15267;47.838;12.128;2022-07-10T05:51:21;5.35;;;4.70;;
27925;SDS011;15267;47.838;12.128;2022-07-10T05:53:47;5.22;;;4.53;;
27925;SDS011;15267;47.838;12.128;2022-07-10T05:56:13;5.50;;;4.18;;
27925;SDS011;15267;47.838;12.128;2022-07-10T05:58:39;5.00;;;4.50;;
27925;SDS011;15267;47.838;12.128;2022-07-10T06:01:05;4.72;;;4.32;;
27925;SDS011;15267;47.838;12.128;2022-07-10T06:03:31;4.35;;;3.95;;
27925;SDS011;15267;47.838;12.128;2022-07-10T06:05:58;4.72;;;3.78;;
27925;SDS011;15267;47.838;12.128;2022-07-10T06:08:24;4.88;;;4.38;;
27925;SDS011;15267;47.838;12.128;2022-07-10T06:10:50;6.28;;;4.30;;
27925;SDS011;15267;47.838;12.128;2022-07-10T06:13:16;5.13;;;4.38;;
27925;SDS011;15267;47.838;12.128;2022-07-10T06:15:42;6.00;;;4.70;;
27925;SDS011;15267;47.838;12.128;2022-07-10T06:18:08;5.13;;;4.70;;
27925;SDS011;15267;47.838;12.128;2022-07-10T06:20:34;6.03;;;4.57;;
27925;SDS011;15267;47.838;12.128;2022-07-10T06:23:00;4.78;;;4.03;;
27925;SDS011;15267;47.838;12.128;2022-07-10T06:25:26;5.40;;;4.90;;
27925;SDS011;15267;47.838;12.128;2022-07-10T06:27:52;4.70;;;4.30;;
27925;SDS011;15267;47.838;12.128;2022-07-10T06:30:18;5.70;;;4.18;;
27925;SDS011;15267;47.838;12.128;2022-07-10T06:32:44;4.45;;;3.92;;
27925;SDS011;15267;47.838;12.128;2022-07-10T06:35:10;5.72;;;4.28;;
27925;SDS011;15267;47.838;12.128;2022-07-10T06:37:36;5.80;;;4.70;;
27925;SDS011;15267;47.838;12.128;2022-07-10T06:40:02;5.13;;;4.63;;
27925;SDS011;15267;47.838;12.128;2022-07-10T06:42:28;5.57;;;3.35;;
27925;SDS011;15267;47.838;12.128;2022-07-10T06:44:54;5.93;;;4.80;;
27925;SDS011;15267;47.838;12.128;2022-07-10T06:47:20;5.28;;;4.63;;
27925;SDS011;15267;47.838;12.128;2022-07-10T06:50:06;5.97;;;4.00;;
27925;SDS011;15267;47.838;12.128;2022-07-10T06:52:33;4.47;;;4.07;;
27925;SDS011;15267;47.838;12.128;2022-07-10T06:54:59;5.32;;;4.50;;
27925;SDS011;15267;47.838;12.128;2022-07-10T06:57:25;5.55;;;4.35;;
27925;SDS011;15267;47.838;12.128;2022-07-10T06:59:51;5.10;;;4.60;;
27925;SDS011;15267;47.838;12.128;2022-07-10T07:02:17;4.50;;;4.10;;
27925;SDS011;15267;47.838;12.128;2022-07-10T07:04:44;6.07;;;4.60;;
27925;SDS011;15267;47.838;12.128;2022-07-10T07:07:11;6.70;;;4.70;;
27925;SDS011;15267;47.838;12.128;2022-07-10T07:09:37;6.28;;;4.63;;
27925;SDS011;15267;47.838;12.128;2022-07-10T07:12:03;6.40;;;4.45;;
27925;SDS011;15267;47.838;12.128;2022-07-10T07:14:29;4.95;;;4.30;;
27925;SDS011;15267;47.838;12.128;2022-07-10T07:16:55;5.82;;;4.47;;
27925;SDS011;15267;47.838;12.128;2022-07-10T07:19:44;5.47;;;3.80;;
27925;SDS011;15267;47.838;12.128;2022-07-10T07:22:29;5.13;;;4.65;;
27925;SDS011;15267;47.838;12.128;2022-07-10T07:25:13;6.32;;;4.60;;
27925;SDS011;15267;47.838;12.128;2022-07-10T07:27:39;5.78;;;4.38;;
27925;SDS011;15267;47.838;12.128;2022-07-10T07:30:06;5.03;;;4.40;;
27925;SDS011;15267;47.838;12.128;2022-07-10T07:32:33;4.70;;;4.18;;
27925;SDS011;15267;47.838;12.128;2022-07-10T07:34:59;4.90;;;4.40;;
27925;SDS011;15267;47.838;12.128;2022-07-10T07:37:38;4.43;;;4.03;;
27925;SDS011;15267;47.838;12.128;2022-07-10T07:40:04;6.40;;;4.53;;
27925;SDS011;15267;47.838;12.128;2022-07-10T07:42:31;4.55;;;4.15;;
27925;SDS011;15267;47.838;12.128;2022-07-10T07:44:57;5.45;;;3.92;;
27925;SDS011;15267;47.838;12.128;2022-07-10T07:47:23;4.63;;;3.45;;
27925;SDS011;15267;47.838;12.128;2022-07-10T07:49:48;4.90;;;4.38;;
27925;SDS011;15267;47.838;12.128;2022-07-10T07:52:14;6.25;;;4.25;;
27925;SDS011;15267;47.838;12.128;2022-07-10T07:54:40;5.35;;;4.30;;
27925;SDS011;15267;47.838;12.128;2022-07-10T07:57:06;6.45;;;3.97;;
27925;SDS011;15267;47.838;12.128;2022-07-10T07:59:32;4.90;;;4.10;;
27925;SDS011;15267;47.838;12.128;2022-07-10T08:01:58;6.40;;;4.72;;
27925;SDS011;15267;47.838;12.128;2022-07-10T08:04:24;6.85;;;4.03;;
27925;SDS011;15267;47.838;12.128;2022-07-10T08:06:50;5.07;;;4.57;;
27925;SDS011;15267;47.838;12.128;2022-07-10T08:09:20;5.20;;;4.20;;
27925;SDS011;15267;47.838;12.128;2022-07-10T08:11:46;7.30;;;4.43;;
27925;SDS011;15267;47.838;12.128;2022-07-10T08:14:12;8.95;;;3.90;;
27925;SDS011;15267;47.838;12.128;2022-07-10T08:16:39;4.82;;;3.97;;
27925;SDS011;15267;47.838;12.128;2022-07-10T08:19:05;4.60;;;3.97;;
27925;SDS011;15267;47.838;12.128;2022-07-10T08:21:31;3.70;;;3.35;;
27925;SDS011;15267;47.838;12.128;2022-07-10T08:23:57;5.05;;;3.90;;
27925;SDS011;15267;47.838;12.128;2022-07-10T08:26:23;5.57;;;3.40;;
27925;SDS011;15267;47.838;12.128;2022-07-10T08:28:50;4.40;;;3.47;;
27925;SDS011;15267;47.838;12.128;2022-07-10T08:31:16;4.90;;;3.50;;
27925;SDS011;15267;47.838;12.128;2022-07-10T08:33:42;4.57;;;3.78;;
27925;SDS011;15267;47.838;12.128;2022-07-10T08:36:08;4.22;;;3.65;;
27925;SDS011;15267;47.838;12.128;2022-07-10T08:38:34;3.88;;;3.47;;
27925;SDS011;15267;47.838;12.128;2022-07-10T08:41:00;5.30;;;3.90;;
27925;SDS011;15267;47.838;12.128;2022-07-10T08:43:27;6.45;;;3.67;;
27925;SDS011;15267;47.838;12.128;2022-07-10T08:45:53;3.50;;;3.20;;
27925;SDS011;15267;47.838;12.128;2022-07-10T08:48:21;5.88;;;3.10;;
27925;SDS011;15267;47.838;12.128;2022-07-10T08:50:47;5.35;;;3.72;;
27925;SDS011;15267;47.838;12.128;2022-07-10T08:53:38;8.27;;;3.42;;
27925;SDS011;15267;47.838;12.128;2022-07-10T08:56:03;3.17;;;2.83;;
27925;SDS011;15267;47.838;12.128;2022-07-10T08:58:29;4.05;;;2.85;;
27925;SDS011;15267;47.838;12.128;2022-07-10T09:00:58;5.68;;;2.83;;
27925;SDS011;15267;47.838;12.128;2022-07-10T09:03:24;4.82;;;2.60;;
27925;SDS011;15267;47.838;12.128;2022-07-10T09:05:49;3.53;;;3.15;;
27925;SDS011;15267;47.838;12.128;2022-07-10T09:08:27;5.45;;;3.10;;
27925;SDS011;15267;47.838;12.128;2022-07-10T09:13:51;4.35;;;3.55;;
27925;SDS011;15267;47.838;12.128;2022-07-10T09:16:21;4.68;;;4.00;;
27925;SDS011;15267;47.838;12.128;2022-07-10T09:18:48;3.58;;;3.28;;
27925;SDS011;15267;47.838;12.128;2022-07-10T09:21:13;4.20;;;3.80;;
27925;SDS011;15267;47.838;12.128;2022-07-10T09:23:39;5.13;;;3.20;;
27925;SDS011;15267;47.838;12.128;2022-07-10T09:26:05;6.32;;;3.70;;
27925;SDS011;15267;47.838;12.128;2022-07-10T09:28:32;5.28;;;3.15;;
27925;SDS011;15267;47.838;12.128;2022-07-10T09:30:57;6.03;;;2.92;;
27925;SDS011;15267;47.838;12.128;2022-07-10T09:33:27;5.22;;;2.95;;
27925;SDS011;15267;47.838;12.128;2022-07-10T09:36:05;3.15;;;2.80;;
27925;SDS011;15267;47.838;12.128;2022-07-10T09:38:48;4.82;;;2.60;;
27925;SDS011;15267;47.838;12.128;2022-07-10T09:41:16;2.97;;;2.20;;
27925;SDS011;15267;47.838;12.128;2022-07-10T09:43:50;4.60;;;2.50;;
27925;SDS011;15267;47.838;12.128;2022-07-10T09:46:17;2.80;;;2.33;;
27925;SDS011;15267;47.838;12.128;2022-07-10T09:48:44;4.20;;;2.40;;
27925;SDS011;15267;47.838;12.128;2022-07-10T09:51:10;3.05;;;2.40;;
27925;SDS011;15267;47.838;12.128;2022-07-10T09:53:43;3.42;;;2.25;;
27925;SDS011;15267;47.838;12.128;2022-07-10T09:56:10;4.40;;;2.53;;
27925;SDS011;15267;47.838;12.128;2022-07-10T09:58:37;4.68;;;2.28;;
27925;SDS011;15267;47.838;12.128;2022-07-10T10:01:04;4.53;;;2.08;;
27925;SDS011;15267;47.838;12.128;2022-07-10T10:03:39;2.95;;;1.88;;
27925;SDS011;15267;47.838;12.128;2022-07-10T10:06:11;1.58;;;1.48;;
27925;SDS011;15267;47.838;12.128;2022-07-10T10:08:44;3.83;;;1.70;;
27925;SDS011;15267;47.838;12.128;2022-07-10T10:11:14;1.85;;;1.50;;
27925;SDS011;15267;47.838;12.128;2022-07-10T10:13:40;3.45;;;1.55;;
27925;SDS011;15267;47.838;12.128;2022-07-10T10:16:07;1.80;;;1.70;;
27925;SDS011;15267;47.838;12.128;2022-07-10T10:18:34;1.50;;;1.40;;
27925;SDS011;15267;47.838;12.128;2022-07-10T10:21:00;5.15;;;1.70;;
27925;SDS011;15267;47.838;12.128;2022-07-10T10:23:26;4.80;;;1.83;;
27925;SDS011;15267;47.838;12.128;2022-07-10T10:25:57;2.95;;;1.67;;
27925;SDS011;15267;47.838;12.128;2022-07-10T10:28:23;1.70;;;1.60;;
27925;SDS011;15267;47.838;12.128;2022-07-10T10:30:54;2.30;;;1.75;;
27925;SDS011;15267;47.838;12.128;2022-07-10T10:36:01;2.70;;;1.80;;
27925;SDS011;15267;47.838;12.128;2022-07-10T10:41:23;6.00;;;1.52;;
27925;SDS011;15267;47.838;12.128;2022-07-10T10:46:30;3.35;;;1.50;;
27925;SDS011;15267;47.838;12.128;2022-07-10T10:49:06;3.85;;;1.95;;
27925;SDS011;15267;47.838;12.128;2022-07-10T10:54:17;4.65;;;1.90;;
27925;SDS011;15267;47.838;12.128;2022-07-10T10:56:43;4.07;;;1.70;;
27925;SDS011;15267;47.838;12.128;2022-07-10T10:59:09;8.52;;;1.80;;
27925;SDS011;15267;47.838;12.128;2022-07-10T11:01:35;4.78;;;1.88;;
27925;SDS011;15267;47.838;12.128;2022-07-10T11:06:43;2.53;;;1.60;;
27925;SDS011;15267;47.838;12.128;2022-07-10T11:12:00;4.18;;;1.55;;
27925;SDS011;15267;47.838;12.128;2022-07-10T11:14:27;3.50;;;1.75;;
27925;SDS011;15267;47.838;12.128;2022-07-10T11:16:54;3.90;;;1.48;;
27925;SDS011;15267;47.838;12.128;2022-07-10T11:19:27;2.47;;;1.33;;
27925;SDS011;15267;47.838;12.128;2022-07-10T11:30:00;4.82;;;1.42;;
27925;SDS011;15267;47.838;12.128;2022-07-10T11:32:27;2.55;;;1.38;;
27925;SDS011;15267;47.838;12.128;2022-07-10T11:34:53;3.67;;;1.27;;
27925;SDS011;15267;47.838;12.128;2022-07-10T11:37:19;2.40;;;1.30;;
27925;SDS011;15267;47.838;12.128;2022-07-10T11:39:45;3.83;;;1.25;;
27925;SDS011;15267;47.838;12.128;2022-07-10T11:42:11;1.90;;;1.45;;
27925;SDS011;15267;47.838;12.128;2022-07-10T11:44:37;2.55;;;1.17;;
27925;SDS011;15267;47.838;12.128;2022-07-10T11:47:03;3.40;;;1.42;;
27925;SDS011;15267;47.838;12.128;2022-07-10T11:49:30;3.78;;;1.40;;
27925;SDS011;15267;47.838;12.128;2022-07-10T11:52:02;2.33;;;1.27;;
27925;SDS011;15267;47.838;12.128;2022-07-10T11:54:29;4.82;;;1.55;;
27925;SDS011;15267;47.838;12.128;2022-07-10T11:56:55;4.45;;;1.20;;
27925;SDS011;15267;47.838;12.128;2022-07-10T11:59:25;2.35;;;1.30;;
27925;SDS011;15267;47.838;12.128;2022-07-10T12:01:51;4.97;;;1.60;;
27925;SDS011;15267;47.838;12.128;2022-07-10T12:04:19;2.63;;;1.20;;
27925;SDS011;15267;47.838;12.128;2022-07-10T12:06:52;2.85;;;1.30;;
27925;SDS011;15267;47.838;12.128;2022-07-10T12:09:19;1.92;;;1.30;;
27925;SDS011;15267;47.838;12.128;2022-07-10T12:12:05;4.80;;;1.50;;
27925;SDS011;15267;47.838;12.128;2022-07-10T12:14:33;2.70;;;1.30;;
27925;SDS011;15267;47.838;12.128;2022-07-10T12:17:00;2.40;;;1.40;;
27925;SDS011;15267;47.838;12.128;2022-07-10T12:19:27;2.55;;;1.23;;
27925;SDS011;15267;47.838;12.128;2022-07-10T12:21:56;3.92;;;1.77;;
27925;SDS011;15267;47.838;12.128;2022-07-10T12:24:22;2.58;;;1.25;;
27925;SDS011;15267;47.838;12.128;2022-07-10T12:26:49;3.25;;;1.60;;
27925;SDS011;15267;47.838;12.128;2022-07-10T12:29:23;3.50;;;1.33;;
27925;SDS011;15267;47.838;12.128;2022-07-10T12:31:50;3.72;;;1.60;;
27925;SDS011;15267;47.838;12.128;2022-07-10T12:34:16;3.30;;;1.40;;
27925;SDS011;15267;47.838;12.128;2022-07-10T12:39:09;3.95;;;1.70;;
27925;SDS011;15267;47.838;12.128;2022-07-10T12:41:35;3.22;;;1.60;;
27925;SDS011;15267;47.838;12.128;2022-07-10T12:44:01;2.20;;;1.23;;
27925;SDS011;15267;47.838;12.128;2022-07-10T12:46:27;1.90;;;1.30;;
27925;SDS011;15267;47.838;12.128;2022-07-10T12:49:09;1.85;;;1.30;;
27925;SDS011;15267;47.838;12.128;2022-07-10T12:54:06;3.75;;;1.30;;
27925;SDS011;15267;47.838;12.128;2022-07-10T12:56:33;3.45;;;1.40;;
27925;SDS011;15267;47.838;12.128;2022-07-10T12:58:59;1.60;;;1.10;;
27925;SDS011;15267;47.838;12.128;2022-07-10T13:01:26;2.10;;;1.20;;
27925;SDS011;15267;47.838;12.128;2022-07-10T13:03:59;5.55;;;1.40;;
27925;SDS011;15267;47.838;12.128;2022-07-10T13:06:27;3.35;;;1.30;;
27925;SDS011;15267;47.838;12.128;2022-07-10T13:08:53;2.78;;;1.42;;
27925;SDS011;15267;47.838;12.128;2022-07-10T13:11:19;5.20;;;1.63;;
27925;SDS011;15267;47.838;12.128;2022-07-10T13:13:46;4.35;;;1.48;;
27925;SDS011;15267;47.838;12.128;2022-07-10T13:16:12;3.22;;;1.50;;
27925;SDS011;15267;47.838;12.128;2022-07-10T13:18:38;2.95;;;1.30;;
27925;SDS011;15267;47.838;12.128;2022-07-10T13:21:07;3.17;;;1.20;;
27925;SDS011;15267;47.838;12.128;2022-07-10T13:23:33;2.17;;;1.27;;
27925;SDS011;15267;47.838;12.128;2022-07-10T13:25:59;3.72;;;1.23;;
27925;SDS011;15267;47.838;12.128;2022-07-10T13:28:26;3.30;;;1.40;;
27925;SDS011;15267;47.838;12.128;2022-07-10T13:30:52;4.28;;;1.33;;
27925;SDS011;15267;47.838;12.128;2022-07-10T13:33:18;3.03;;;1.25;;
27925;SDS011;15267;47.838;12.128;2022-07-10T13:35:44;3.45;;;1.25;;
27925;SDS011;15267;47.838;12.128;2022-07-10T13:38:10;4.50;;;1.48;;
27925;SDS011;15267;47.838;12.128;2022-07-10T13:40:37;3.17;;;1.55;;
27925;SDS011;15267;47.838;12.128;2022-07-10T13:43:03;2.67;;;1.15;;
27925;SDS011;15267;47.838;12.128;2022-07-10T13:45:31;5.05;;;1.25;;
27925;SDS011;15267;47.838;12.128;2022-07-10T13:48:01;2.33;;;1.27;;
27925;SDS011;15267;47.838;12.128;2022-07-10T13:50:27;2.67;;;1.30;;
27925;SDS011;15267;47.838;12.128;2022-07-10T13:52:53;3.58;;;1.20;;
27925;SDS011;15267;47.838;12.128;2022-07-10T13:55:19;3.42;;;1.25;;
27925;SDS011;15267;47.838;12.128;2022-07-10T13:57:45;3.00;;;1.20;;
27925;SDS011;15267;47.838;12.128;2022-07-10T14:00:11;2.95;;;1.17;;
27925;SDS011;15267;47.838;12.128;2022-07-10T14:02:37;3.30;;;1.17;;
27925;SDS011;15267;47.838;12.128;2022-07-10T14:05:03;2.90;;;1.20;;
27925;SDS011;15267;47.838;12.128;2022-07-10T14:07:29;4.45;;;1.20;;
27925;SDS011;15267;47.838;12.128;2022-07-10T14:09:55;3.97;;;1.33;;
27925;SDS011;15267;47.838;12.128;2022-07-10T14:12:23;1.92;;;0.90;;
27925;SDS011;15267;47.838;12.128;2022-07-10T14:14:49;2.45;;;1.23;;
27925;SDS011;15267;47.838;12.128;2022-07-10T14:17:15;2.40;;;1.30;;
27925;SDS011;15267;47.838;12.128;2022-07-10T14:19:41;2.65;;;1.35;;
27925;SDS011;15267;47.838;12.128;2022-07-10T14:22:07;2.20;;;1.30;;
27925;SDS011;15267;47.838;12.128;2022-07-10T14:24:34;3.55;;;1.13;;
27925;SDS011;15267;47.838;12.128;2022-07-10T14:27:00;2.40;;;1.35;;
27925;SDS011;15267;47.838;12.128;2022-07-10T14:29:26;5.32;;;1.10;;
27925;SDS011;15267;47.838;12.128;2022-07-10T14:31:52;3.92;;;1.20;;
27925;SDS011;15267;47.838;12.128;2022-07-10T14:34:18;3.17;;;1.17;;
27925;SDS011;15267;47.838;12.128;2022-07-10T14:36:44;2.35;;;1.10;;
27925;SDS011;15267;47.838;12.128;2022-07-10T14:39:10;2.13;;;1.20;;
27925;SDS011;15267;47.838;12.128;2022-07-10T14:41:37;1.63;;;1.08;;
27925;SDS011;15267;47.838;12.128;2022-07-10T14:44:03;4.68;;;1.15;;
27925;SDS011;15267;47.838;12.128;2022-07-10T14:46:29;4.40;;;1.40;;
27925;SDS011;15267;47.838;12.128;2022-07-10T14:48:55;2.78;;;1.20;;
27925;SDS011;15267;47.838;12.128;2022-07-10T14:51:21;2.72;;;1.20;;
27925;SDS011;15267;47.838;12.128;2022-07-10T14:53:48;3.28;;;1.10;;
27925;SDS011;15267;47.838;12.128;2022-07-10T14:56:14;1.90;;;0.85;;
27925;SDS011;15267;47.838;12.128;2022-07-10T14:58:41;2.83;;;1.10;;
27925;SDS011;15267;47.838;12.128;2022-07-10T15:01:07;3.55;;;1.10;;
27925;SDS011;15267;47.838;12.128;2022-07-10T15:03:33;2.45;;;1.00;;